Time;durP1;ratioP1;P1;durP2;ratioP2;P2;SDS_P1;SDS_P2;PMS_P1;PMS_P2;Temp;Humidity;BMP_temperature;BMP_pressure;BME280_temperature;BME280_humidity;BME280_pressure;Samples;Min_cycle;Max_cycle;Signal;HPM_P1;HPM_P2
2023/12/03 00:01:34;;;;;;;8.32;5.03;;;;;;;;;;5088755;28;20016;-66
2023/12/03 00:03:59;;;;;;;10.25;5.38;;;;;;;;;;5082093;28;20433;-66
2023/12/03 00:06:25;;;;;;;11.80;4.68;;;;;;;;;;5075169;28;20113;-66
2023/12/03 00:08:50;;;;;;;5.55;3.22;;;;;;;;;;5074862;28;20154;-67
2023/12/03 00:11:16;;;;;;;7.18;4.25;;;;;;;;;;5074916;28;20020;-66
2023/12/03 00:13:41;;;;;;;7.18;4.00;;;;;;;;;;5074829;28;20040;-66
2023/12/03 00:16:07;;;;;;;9.80;5.22;;;;;;;;;;5074968;28;20099;-66
2023/12/03 00:18:32;;;;;;;6.45;3.58;;;;;;;;;;5075072;28;20528;-66
2023/12/03 00:20:58;;;;;;;9.02;4.70;;;;;;;;;;5067708;28;20029;-66
2023/12/03 00:23:23;;;;;;;9.88;4.40;;;;;;;;;;5053461;28;20462;-66
2023/12/03 00:25:49;;;;;;;10.77;4.85;;;;;;;;;;5053543;28;20036;-65
2023/12/03 00:28:14;;;;;;;8.63;4.07;;;;;;;;;;5054591;28;20021;-66
2023/12/03 00:30:40;;;;;;;8.38;4.05;;;;;;;;;;5054700;28;20422;-66
2023/12/03 00:33:05;;;;;;;6.72;3.67;;;;;;;;;;5060635;28;20039;-66
2023/12/03 00:35:30;;;;;;;8.27;4.32;;;;;;;;;;5074657;28;20021;-66
2023/12/03 00:37:56;;;;;;;9.60;4.00;;;;;;;;;;5074443;28;20024;-67
2023/12/03 00:40:21;;;;;;;7.97;4.32;;;;;;;;;;5074539;28;20032;-67
2023/12/03 00:42:47;;;;;;;5.55;3.22;;;;;;;;;;5053993;28;20135;-67
2023/12/03 00:45:12;;;;;;;10.40;4.55;;;;;;;;;;5054533;28;20021;-67
2023/12/03 00:47:38;;;;;;;10.80;4.55;;;;;;;;;;5054471;28;20067;-67
2023/12/03 00:50:03;;;;;;;9.93;4.45;;;;;;;;;;5053092;28;20061;-66
2023/12/03 00:52:29;;;;;;;13.85;4.82;;;;;;;;;;5052588;28;20086;-66
2023/12/03 00:54:54;;;;;;;16.58;5.35;;;;;;;;;;5050679;28;20359;-67
2023/12/03 00:57:19;;;;;;;10.35;4.90;;;;;;;;;;5073129;28;20024;-67
2023/12/03 00:59:45;;;;;;;9.70;4.78;;;;;;;;;;5072921;28;20038;-66
2023/12/03 01:02:10;;;;;;;8.52;4.35;;;;;;;;;;5074164;28;20029;-66
2023/12/03 01:04:36;;;;;;;7.75;3.90;;;;;;;;;;5074179;28;20055;-66
2023/12/03 01:07:01;;;;;;;7.68;4.07;;;;;;;;;;5072613;28;20436;-66
2023/12/03 01:09:30;;;;;;;11.77;5.05;;;;;;;;;;5074081;28;20027;-66
2023/12/03 01:11:57;;;;;;;8.45;4.82;;;;;;;;;;5073893;28;20796;-66
2023/12/03 01:14:23;;;;;;;10.45;4.32;;;;;;;;;;5073860;28;20025;-67
2023/12/03 01:16:49;;;;;;;4.95;3.15;;;;;;;;;;5072885;28;20020;-66
2023/12/03 01:19:14;;;;;;;7.57;3.92;;;;;;;;;;5073744;28;20036;-66
2023/12/03 01:21:39;;;;;;;6.47;3.33;;;;;;;;;;5060185;28;20428;-66
2023/12/03 01:24:05;;;;;;;6.15;3.75;;;;;;;;;;5053705;28;20450;-67
2023/12/03 01:26:30;;;;;;;6.43;3.42;;;;;;;;;;5053640;28;20155;-66
2023/12/03 01:28:56;;;;;;;5.63;3.47;;;;;;;;;;5053307;28;20029;-67
2023/12/03 01:31:21;;;;;;;7.05;3.55;;;;;;;;;;5053338;28;20024;-66
2023/12/03 01:33:47;;;;;;;8.00;3.85;;;;;;;;;;5064942;28;20039;-66
2023/12/03 01:36:12;;;;;;;6.25;3.85;;;;;;;;;;5073094;28;20384;-66
2023/12/03 01:38:37;;;;;;;7.32;3.90;;;;;;;;;;5073464;28;20024;-65
2023/12/03 01:41:03;;;;;;;8.13;4.53;;;;;;;;;;5068457;28;20343;-66
2023/12/03 01:43:28;;;;;;;8.32;3.92;;;;;;;;;;5053535;28;20458;-66
2023/12/03 01:45:54;;;;;;;7.47;3.65;;;;;;;;;;5053264;28;20053;-66
2023/12/03 01:48:19;;;;;;;6.90;3.58;;;;;;;;;;5051999;28;20032;-67
2023/12/03 01:50:47;;;;;;;6.30;3.17;;;;;;;;;;5052998;28;20021;-67
2023/12/03 01:53:14;;;;;;;5.90;3.42;;;;;;;;;;5052741;28;20051;-67
2023/12/03 01:55:39;;;;;;;6.30;3.53;;;;;;;;;;5056976;28;20056;-68
2023/12/03 01:58:04;;;;;;;8.32;3.28;;;;;;;;;;5073055;28;20497;-68
2023/12/03 02:00:32;;;;;;;6.15;3.20;;;;;;;;;;5073165;28;20031;-68
2023/12/03 02:02:57;;;;;;;8.80;4.18;;;;;;;;;;5072780;28;20029;-66
2023/12/03 02:05:23;;;;;;;11.27;4.55;;;;;;;;;;5072979;28;20048;-67
2023/12/03 02:07:48;;;;;;;8.15;4.18;;;;;;;;;;5072870;28;20033;-67
2023/12/03 02:10:14;;;;;;;7.68;3.97;;;;;;;;;;5072836;28;20062;-67
2023/12/03 02:12:39;;;;;;;9.43;5.15;;;;;;;;;;5072716;28;20035;-68
2023/12/03 02:15:05;;;;;;;8.75;4.25;;;;;;;;;;5072987;28;20032;-67
2023/12/03 02:17:31;;;;;;;9.25;4.43;;;;;;;;;;5072498;28;20493;-66
2023/12/03 02:19:56;;;;;;;6.45;4.10;;;;;;;;;;5071403;28;20025;-67
2023/12/03 02:22:22;;;;;;;5.35;3.20;;;;;;;;;;5053814;28;20115;-66
2023/12/03 02:24:47;;;;;;;5.35;3.17;;;;;;;;;;5052788;28;20025;-68
2023/12/03 02:27:12;;;;;;;4.90;2.67;;;;;;;;;;5052425;28;20029;-67
2023/12/03 02:29:38;;;;;;;6.35;3.25;;;;;;;;;;5052469;28;20533;-66
2023/12/03 02:32:03;;;;;;;5.63;3.25;;;;;;;;;;5052196;28;20027;-66
2023/12/03 02:34:29;;;;;;;6.25;3.08;;;;;;;;;;5070077;28;20029;-66
2023/12/03 02:36:54;;;;;;;5.60;3.67;;;;;;;;;;5072463;28;20366;-66
2023/12/03 02:39:21;;;;;;;6.85;4.43;;;;;;;;;;5071270;28;20024;-68
2023/12/03 02:41:46;;;;;;;5.93;3.33;;;;;;;;;;5061532;28;20025;-68
2023/12/03 02:44:12;;;;;;;5.20;2.95;;;;;;;;;;5052376;28;20035;-66
2023/12/03 02:46:37;;;;;;;4.70;2.67;;;;;;;;;;5052097;28;20364;-65
2023/12/03 02:49:03;;;;;;;5.47;2.60;;;;;;;;;;5052328;28;20032;-66
2023/12/03 02:51:28;;;;;;;4.00;2.85;;;;;;;;;;5052334;28;20036;-67
2023/12/03 02:53:54;;;;;;;4.43;2.40;;;;;;;;;;5051696;28;20048;-66
2023/12/03 02:56:19;;;;;;;4.75;2.40;;;;;;;;;;5050886;28;20028;-65
2023/12/03 02:58:45;;;;;;;5.05;2.75;;;;;;;;;;5072312;28;20116;-66
2023/12/03 03:01:10;;;;;;;4.22;2.67;;;;;;;;;;5072144;28;20024;-67
2023/12/03 03:03:35;;;;;;;5.05;2.90;;;;;;;;;;5071056;28;20108;-67
2023/12/03 03:06:01;;;;;;;5.30;2.50;;;;;;;;;;5072113;28;20027;-65
2023/12/03 03:08:26;;;;;;;7.65;3.42;;;;;;;;;;5072425;28;20153;-67
2023/12/03 03:10:52;;;;;;;5.78;2.67;;;;;;;;;;5072106;28;20035;-67
2023/12/03 03:13:17;;;;;;;5.25;2.58;;;;;;;;;;5072128;28;20051;-67
2023/12/03 03:15:43;;;;;;;6.32;2.92;;;;;;;;;;5071997;28;20395;-67
2023/12/03 03:18:08;;;;;;;4.78;3.03;;;;;;;;;;5072001;28;20108;-67
2023/12/03 03:20:34;;;;;;;5.10;3.17;;;;;;;;;;5068463;28;20108;-68
2023/12/03 03:23:00;;;;;;;2.83;2.03;;;;;;;;;;5050549;28;20064;-67
2023/12/03 03:25:25;;;;;;;4.32;2.78;;;;;;;;;;5052037;28;20521;-67
2023/12/03 03:27:51;;;;;;;4.95;2.60;;;;;;;;;;5051908;28;20075;-67
2023/12/03 03:30:16;;;;;;;6.20;2.63;;;;;;;;;;5051586;28;20029;-67
2023/12/03 03:32:42;;;;;;;5.65;2.90;;;;;;;;;;5054481;28;20074;-67
2023/12/03 03:35:08;;;;;;;5.53;2.70;;;;;;;;;;5072003;28;20025;-67
2023/12/03 03:37:33;;;;;;;6.13;2.80;;;;;;;;;;5071824;28;20036;-66
2023/12/03 03:39:58;;;;;;;5.60;3.15;;;;;;;;;;5074325;28;20032;-66
2023/12/03 03:42:24;;;;;;;4.00;2.55;;;;;;;;;;5059425;28;20031;-67
2023/12/03 03:44:49;;;;;;;5.10;3.17;;;;;;;;;;5055497;28;20025;-66
2023/12/03 03:47:15;;;;;;;7.63;2.95;;;;;;;;;;5055631;28;20017;-66
2023/12/03 03:49:41;;;;;;;5.10;2.78;;;;;;;;;;5055610;28;20021;-66
2023/12/03 03:52:07;;;;;;;5.03;2.40;;;;;;;;;;5055187;28;20561;-66
2023/12/03 03:54:32;;;;;;;3.75;2.42;;;;;;;;;;5049976;28;20060;-65
2023/12/03 03:56:58;;;;;;;4.05;2.30;;;;;;;;;;5053730;28;20116;-66
2023/12/03 03:59:24;;;;;;;4.70;2.90;;;;;;;;;;5055355;28;20028;-68
2023/12/03 04:01:50;;;;;;;8.45;4.80;;;;;;;;;;5055139;28;20021;-67
2023/12/03 04:04:16;;;;;;;7.22;3.03;;;;;;;;;;5055307;28;20536;-67
2023/12/03 04:06:44;;;;;;;3.90;2.53;;;;;;;;;;5055231;28;20132;-68
2023/12/03 04:09:10;;;;;;;4.82;2.88;;;;;;;;;;5055030;28;20158;-68
2023/12/03 04:11:46;;;;;;;4.32;2.80;;;;;;;;;;5053783;28;20489;-67
2023/12/03 04:14:15;;;;;;;4.88;2.67;;;;;;;;;;5055051;28;20029;-66
2023/12/03 04:16:41;;;;;;;5.10;2.45;;;;;;;;;;5055098;28;20021;-65
2023/12/03 04:19:06;;;;;;;4.20;2.47;;;;;;;;;;5055135;28;20061;-66
2023/12/03 04:21:32;;;;;;;5.22;3.08;;;;;;;;;;5054948;28;20488;-67
2023/12/03 04:23:58;;;;;;;5.07;2.65;;;;;;;;;;5054356;28;20031;-66
2023/12/03 04:26:24;;;;;;;4.47;2.67;;;;;;;;;;5055008;28;20374;-66
2023/12/03 04:28:49;;;;;;;2.70;2.13;;;;;;;;;;5054596;28;20114;-67
2023/12/03 04:31:21;;;;;;;6.30;3.47;;;;;;;;;;5054484;28;20025;-67
2023/12/03 04:33:47;;;;;;;5.90;4.05;;;;;;;;;;5066300;28;20115;-66
2023/12/03 04:36:13;;;;;;;6.75;4.03;;;;;;;;;;5073470;28;20107;-67
2023/12/03 04:38:39;;;;;;;4.68;2.88;;;;;;;;;;5074476;28;20031;-65
2023/12/03 04:41:04;;;;;;;4.38;2.42;;;;;;;;;;5069544;28;20327;-67
2023/12/03 04:43:30;;;;;;;4.55;2.35;;;;;;;;;;5054273;28;20071;-66
2023/12/03 04:45:55;;;;;;;5.00;2.88;;;;;;;;;;5054359;28;20060;-67
2023/12/03 04:48:21;;;;;;;4.43;2.40;;;;;;;;;;5054719;28;20028;-65
2023/12/03 04:50:46;;;;;;;4.45;2.38;;;;;;;;;;5054330;28;20403;-68
2023/12/03 04:53:11;;;;;;;6.43;2.95;;;;;;;;;;5054145;28;20559;-66
2023/12/03 04:55:39;;;;;;;5.28;2.40;;;;;;;;;;5040004;28;20029;-67
2023/12/03 04:58:05;;;;;;;4.88;2.75;;;;;;;;;;5049258;28;20033;-67
2023/12/03 05:00:30;;;;;;;8.88;4.65;;;;;;;;;;5074306;28;20032;-67
2023/12/03 05:02:55;;;;;;;4.75;3.00;;;;;;;;;;5074182;28;20055;-66
2023/12/03 05:05:21;;;;;;;4.97;3.08;;;;;;;;;;5074227;28;20075;-65
2023/12/03 05:07:46;;;;;;;4.20;2.65;;;;;;;;;;5074033;28;20031;-67
2023/12/03 05:10:13;;;;;;;5.75;3.30;;;;;;;;;;5074047;28;20052;-66
2023/12/03 05:12:38;;;;;;;5.05;2.80;;;;;;;;;;5073660;28;20029;-67
2023/12/03 05:15:04;;;;;;;3.78;2.38;;;;;;;;;;5073917;28;20086;-67
2023/12/03 05:17:29;;;;;;;5.72;3.17;;;;;;;;;;5073781;28;20444;-67
2023/12/03 05:19:55;;;;;;;6.07;3.03;;;;;;;;;;5073788;28;20024;-66
2023/12/03 05:22:20;;;;;;;5.22;2.70;;;;;;;;;;5055056;28;20021;-67
2023/12/03 05:24:45;;;;;;;5.25;2.70;;;;;;;;;;5053611;28;20025;-67
2023/12/03 05:27:11;;;;;;;4.80;2.85;;;;;;;;;;5053525;28;20378;-67
2023/12/03 05:29:42;;;;;;;5.88;2.95;;;;;;;;;;5053548;28;20028;-66
2023/12/03 05:32:07;;;;;;;5.15;2.50;;;;;;;;;;5032561;28;20024;-67
2023/12/03 05:34:33;;;;;;;5.45;2.78;;;;;;;;;;5069468;28;20029;-67
2023/12/03 05:36:58;;;;;;;6.00;2.80;;;;;;;;;;5073629;28;20031;-66
2023/12/03 05:39:24;;;;;;;5.75;2.92;;;;;;;;;;5073181;28;20099;-67
2023/12/03 05:41:49;;;;;;;5.75;3.28;;;;;;;;;;5061746;28;20094;-68
2023/12/03 05:44:15;;;;;;;5.55;2.63;;;;;;;;;;5053388;28;20017;-66
2023/12/03 05:46:43;;;;;;;6.90;3.60;;;;;;;;;;5053308;28;20067;-66
2023/12/03 05:49:09;;;;;;;4.72;3.00;;;;;;;;;;5053071;28;20425;-67
2023/12/03 05:51:35;;;;;;;5.95;3.20;;;;;;;;;;5053017;28;20049;-67
2023/12/03 05:54:00;;;;;;;7.72;3.40;;;;;;;;;;5053097;28;20076;-66
2023/12/03 05:56:26;;;;;;;6.40;3.28;;;;;;;;;;5036046;28;20060;-66
2023/12/03 05:58:51;;;;;;;6.50;3.65;;;;;;;;;;5043212;28;20025;-66
2023/12/03 06:01:26;;;;;;;6.00;3.10;;;;;;;;;;5072623;28;20071;-68
2023/12/03 06:03:51;;;;;;;5.85;3.20;;;;;;;;;;5072992;28;20484;-67
2023/12/03 06:06:17;;;;;;;6.63;3.47;;;;;;;;;;5072913;28;20052;-67
2023/12/03 06:08:43;;;;;;;5.65;3.13;;;;;;;;;;5072668;28;20100;-67
2023/12/03 06:11:09;;;;;;;7.20;3.80;;;;;;;;;;5072684;28;20043;-67
2023/12/03 06:13:34;;;;;;;6.68;3.50;;;;;;;;;;5071420;28;20489;-67
2023/12/03 06:16:00;;;;;;;5.65;3.60;;;;;;;;;;5072759;28;20082;-66
2023/12/03 06:18:26;;;;;;;7.70;3.90;;;;;;;;;;5072694;28;20028;-66
2023/12/03 06:20:52;;;;;;;6.47;3.50;;;;;;;;;;5066408;28;20389;-66
2023/12/03 06:23:17;;;;;;;7.60;4.20;;;;;;;;;;5052796;28;20032;-68
2023/12/03 06:25:43;;;;;;;7.55;3.83;;;;;;;;;;5052415;28;20401;-67
2023/12/03 06:28:09;;;;;;;7.65;4.53;;;;;;;;;;5052581;28;20025;-67
2023/12/03 06:30:35;;;;;;;9.32;4.55;;;;;;;;;;5052385;28;20029;-67
2023/12/03 06:33:00;;;;;;;11.23;6.32;;;;;;;;;;5056104;28;20079;-67
2023/12/03 06:35:26;;;;;;;7.78;4.88;;;;;;;;;;5052534;28;20056;-67
2023/12/03 06:37:51;;;;;;;8.18;4.47;;;;;;;;;;5052344;28;20116;-67
2023/12/03 06:40:17;;;;;;;6.43;3.50;;;;;;;;;;5052224;28;20021;-67
2023/12/03 06:42:43;;;;;;;7.40;4.22;;;;;;;;;;5052334;28;20037;-67
2023/12/03 06:45:09;;;;;;;7.40;3.80;;;;;;;;;;5052593;28;20025;-67
2023/12/03 06:47:34;;;;;;;5.93;3.25;;;;;;;;;;5052395;28;20085;-67
2023/12/03 06:49:59;;;;;;;8.23;4.15;;;;;;;;;;5052288;28;20024;-67
2023/12/03 06:52:25;;;;;;;8.05;4.28;;;;;;;;;;5052082;28;20043;-67
2023/12/03 06:54:50;;;;;;;8.50;4.65;;;;;;;;;;5052184;28;20474;-68
2023/12/03 06:57:16;;;;;;;11.65;4.90;;;;;;;;;;5040955;28;20025;-67
2023/12/03 06:59:41;;;;;;;10.60;5.05;;;;;;;;;;5042234;28;20024;-67
2023/12/03 07:02:06;;;;;;;8.50;4.50;;;;;;;;;;5072318;28;20028;-67
2023/12/03 07:04:32;;;;;;;7.90;4.30;;;;;;;;;;5072262;28;20031;-67
2023/12/03 07:07:00;;;;;;;11.55;5.20;;;;;;;;;;5072285;28;20027;-67
2023/12/03 07:09:25;;;;;;;10.05;5.35;;;;;;;;;;5071978;28;20021;-67
2023/12/03 07:11:51;;;;;;;8.38;3.88;;;;;;;;;;5072138;28;20113;-68
2023/12/03 07:14:16;;;;;;;10.70;5.20;;;;;;;;;;5073707;28;20466;-68
2023/12/03 07:16:42;;;;;;;11.00;6.00;;;;;;;;;;5076402;28;20029;-67
2023/12/03 07:19:08;;;;;;;9.15;4.82;;;;;;;;;;5076003;28;20025;-68
2023/12/03 07:21:34;;;;;;;11.23;5.82;;;;;;;;;;5064077;28;20040;-68
2023/12/03 07:23:59;;;;;;;11.05;5.95;;;;;;;;;;5055833;28;20056;-68
2023/12/03 07:26:25;;;;;;;7.90;3.83;;;;;;;;;;5055912;28;20490;-67
2023/12/03 07:28:50;;;;;;;12.95;6.15;;;;;;;;;;5055972;28;20036;-68
2023/12/03 07:31:15;;;;;;;5.53;2.65;;;;;;;;;;5055748;28;20032;-67
2023/12/03 07:33:42;;;;;;;8.52;4.13;;;;;;;;;;5066585;28;20035;-67
2023/12/03 07:36:08;;;;;;;11.40;6.03;;;;;;;;;;5056822;28;20059;-67
2023/12/03 07:38:34;;;;;;;10.15;5.38;;;;;;;;;;5055486;28;20032;-66
2023/12/03 07:40:59;;;;;;;12.98;6.15;;;;;;;;;;5055691;28;20029;-68
2023/12/03 07:43:25;;;;;;;12.18;6.35;;;;;;;;;;5055538;28;20028;-67
2023/12/03 07:45:51;;;;;;;9.48;4.75;;;;;;;;;;5055650;28;20028;-67
2023/12/03 07:48:16;;;;;;;11.88;6.20;;;;;;;;;;5055356;28;20025;-67
2023/12/03 07:50:42;;;;;;;13.55;6.78;;;;;;;;;;5055484;28;20021;-67
2023/12/03 07:53:07;;;;;;;13.05;5.97;;;;;;;;;;5054969;28;20129;-67
2023/12/03 07:55:33;;;;;;;15.48;6.63;;;;;;;;;;5055364;28;20111;-67
2023/12/03 07:57:59;;;;;;;14.88;7.22;;;;;;;;;;5044137;28;20132;-68
2023/12/03 08:00:25;;;;;;;13.38;5.65;;;;;;;;;;5043844;28;20024;-67
2023/12/03 08:02:50;;;;;;;11.95;6.25;;;;;;;;;;5075390;28;20044;-69
2023/12/03 08:05:15;;;;;;;14.20;7.00;;;;;;;;;;5075410;28;20021;-68
2023/12/03 08:07:42;;;;;;;11.52;6.45;;;;;;;;;;5074681;28;20441;-67
2023/12/03 08:10:07;;;;;;;13.65;6.28;;;;;;;;;;5075180;28;20100;-68
2023/12/03 08:12:33;;;;;;;13.35;6.57;;;;;;;;;;5075110;28;20111;-68
2023/12/03 08:14:58;;;;;;;15.48;7.05;;;;;;;;;;5075088;28;20036;-68
2023/12/03 08:17:24;;;;;;;12.95;6.85;;;;;;;;;;5075068;28;20052;-68
2023/12/03 08:19:49;;;;;;;18.25;7.00;;;;;;;;;;5073670;28;20033;-68
2023/12/03 08:22:15;;;;;;;15.30;6.82;;;;;;;;;;5055482;28;20063;-68
2023/12/03 08:24:41;;;;;;;16.45;7.90;;;;;;;;;;5054561;28;20390;-68
2023/12/03 08:27:06;;;;;;;15.63;6.90;;;;;;;;;;5054815;28;20109;-66
2023/12/03 08:29:32;;;;;;;16.65;7.53;;;;;;;;;;5054726;28;20036;-66
2023/12/03 08:31:58;;;;;;;14.55;7.75;;;;;;;;;;5053089;28;20051;-68
2023/12/03 08:34:23;;;;;;;12.32;5.88;;;;;;;;;;5069920;28;20020;-66
2023/12/03 08:36:49;;;;;;;10.00;5.53;;;;;;;;;;5054675;28;20033;-67
2023/12/03 08:39:14;;;;;;;11.65;6.03;;;;;;;;;;5054666;28;20150;-68
2023/12/03 08:41:40;;;;;;;11.88;6.15;;;;;;;;;;5054424;28;20025;-68
2023/12/03 08:44:05;;;;;;;12.52;6.32;;;;;;;;;;5054490;28;20029;-67
2023/12/03 08:46:30;;;;;;;10.27;5.97;;;;;;;;;;5054471;28;20078;-67
2023/12/03 08:48:56;;;;;;;10.45;4.95;;;;;;;;;;5054248;28;20351;-67
2023/12/03 08:51:22;;;;;;;12.25;6.53;;;;;;;;;;5054372;28;20491;-67
2023/12/03 08:53:47;;;;;;;13.85;6.22;;;;;;;;;;5054143;28;20056;-67
2023/12/03 08:56:13;;;;;;;13.07;7.45;;;;;;;;;;5054267;28;20378;-67
2023/12/03 08:58:41;;;;;;;15.50;7.43;;;;;;;;;;5048141;28;20028;-67
2023/12/03 09:01:07;;;;;;;13.15;6.15;;;;;;;;;;5042756;28;20052;-67
2023/12/03 09:03:35;;;;;;;14.82;7.18;;;;;;;;;;5053393;28;20033;-67
2023/12/03 09:06:01;;;;;;;13.10;7.10;;;;;;;;;;5053796;28;20551;-66
2023/12/03 09:08:26;;;;;;;9.90;4.60;;;;;;;;;;5050998;28;20045;-66
2023/12/03 09:10:52;;;;;;;12.75;5.93;;;;;;;;;;5054015;28;20021;-66
2023/12/03 09:13:17;;;;;;;12.27;5.78;;;;;;;;;;5054037;28;20381;-67
2023/12/03 09:15:43;;;;;;;18.13;9.38;;;;;;;;;;5053713;28;20029;-66
2023/12/03 09:18:08;;;;;;;15.38;6.75;;;;;;;;;;5053694;28;20534;-66
2023/12/03 09:20:34;;;;;;;14.35;7.10;;;;;;;;;;5053740;28;20025;-67
2023/12/03 09:22:59;;;;;;;12.70;6.65;;;;;;;;;;5052555;28;20032;-66
2023/12/03 09:25:24;;;;;;;12.30;6.25;;;;;;;;;;5053736;28;20475;-66
2023/12/03 09:27:50;;;;;;;11.23;5.70;;;;;;;;;;5053446;28;20059;-66
2023/12/03 09:30:15;;;;;;;12.23;5.75;;;;;;;;;;5053617;28;20133;-66
2023/12/03 09:32:41;;;;;;;12.90;6.72;;;;;;;;;;5055719;28;20470;-66
2023/12/03 09:35:07;;;;;;;10.63;6.22;;;;;;;;;;5071044;28;20433;-68
2023/12/03 09:37:32;;;;;;;11.05;5.43;;;;;;;;;;5052785;28;20394;-66
2023/12/03 09:39:58;;;;;;;10.27;6.07;;;;;;;;;;5053084;28;20021;-67
2023/12/03 09:42:26;;;;;;;9.73;5.45;;;;;;;;;;5053347;28;20032;-67
2023/12/03 09:45:04;;;;;;;21.30;11.27;;;;;;;;;;5053397;28;20025;-67
2023/12/03 09:47:34;;;;;;;15.15;8.30;;;;;;;;;;5052414;28;20036;-67
2023/12/03 09:50:00;;;;;;;13.25;6.22;;;;;;;;;;5053289;28;20478;-67
2023/12/03 09:52:29;;;;;;;14.23;8.07;;;;;;;;;;5052988;28;20056;-65
2023/12/03 09:54:58;;;;;;;10.73;6.15;;;;;;;;;;5053297;28;20028;-65
2023/12/03 09:57:26;;;;;;;13.40;6.30;;;;;;;;;;5053018;28;20024;-65
2023/12/03 09:59:52;;;;;;;11.38;6.05;;;;;;;;;;5051860;28;20025;-65
2023/12/03 10:02:20;;;;;;;12.55;6.43;;;;;;;;;;5070867;28;20038;-65
2023/12/03 10:04:45;;;;;;;14.77;6.70;;;;;;;;;;5071891;28;20466;-66
2023/12/03 10:07:12;;;;;;;10.20;6.18;;;;;;;;;;5073066;28;20099;-67
2023/12/03 10:09:40;;;;;;;15.00;8.02;;;;;;;;;;5073042;28;20013;-66
2023/12/03 10:12:10;;;;;;;13.18;5.75;;;;;;;;;;5072826;28;20029;-66
2023/12/03 10:14:36;;;;;;;10.95;5.22;;;;;;;;;;5073000;28;20033;-66
2023/12/03 10:17:02;;;;;;;14.23;5.53;;;;;;;;;;5069396;28;20511;-66
2023/12/03 10:19:28;;;;;;;13.35;7.78;;;;;;;;;;5043631;28;20112;-66
2023/12/03 10:21:58;;;;;;;8.93;5.65;;;;;;;;;;5040277;28;20056;-66
2023/12/03 10:24:23;;;;;;;8.50;5.10;;;;;;;;;;5032753;28;20033;-67
2023/12/03 10:26:51;;;;;;;9.57;5.10;;;;;;;;;;5044304;28;20029;-68
2023/12/03 10:29:19;;;;;;;11.52;5.63;;;;;;;;;;5052269;28;20029;-67
2023/12/03 10:31:49;;;;;;;13.02;7.57;;;;;;;;;;5052116;28;20163;-66
2023/12/03 10:34:14;;;;;;;9.23;5.13;;;;;;;;;;5053499;28;20600;-66
2023/12/03 10:36:42;;;;;;;6.75;4.15;;;;;;;;;;5045223;28;20061;-66
2023/12/03 10:39:08;;;;;;;8.95;5.47;;;;;;;;;;5040907;28;20025;-66
2023/12/03 10:41:33;;;;;;;10.88;6.35;;;;;;;;;;5041139;28;20025;-67
2023/12/03 10:44:00;;;;;;;12.32;6.35;;;;;;;;;;5052015;28;20106;-66
2023/12/03 10:46:26;;;;;;;14.10;8.48;;;;;;;;;;5052035;28;20412;-66
2023/12/03 10:48:52;;;;;;;10.70;5.32;;;;;;;;;;5052099;28;20025;-66
2023/12/03 10:51:18;;;;;;;13.52;6.90;;;;;;;;;;5045685;28;20110;-66
2023/12/03 10:53:44;;;;;;;13.38;6.07;;;;;;;;;;5030374;28;20068;-65
2023/12/03 10:56:10;;;;;;;15.10;8.63;;;;;;;;;;5031862;28;20034;-66
2023/12/03 10:58:39;;;;;;;17.05;9.57;;;;;;;;;;5032063;28;20108;-66
2023/12/03 11:01:22;;;;;;;38.58;17.75;;;;;;;;;;5044836;28;20056;-66
2023/12/03 11:04:08;;;;;;;21.92;11.13;;;;;;;;;;5032038;28;20033;-66
2023/12/03 11:06:35;;;;;;;16.83;8.88;;;;;;;;;;5030831;28;20434;-66
2023/12/03 11:09:01;;;;;;;9.82;5.10;;;;;;;;;;5042818;28;20108;-66
2023/12/03 11:11:27;;;;;;;16.42;7.97;;;;;;;;;;5051692;28;20029;-66
2023/12/03 11:13:57;;;;;;;14.20;7.63;;;;;;;;;;5051695;28;20047;-66
2023/12/03 11:16:25;;;;;;;12.52;6.43;;;;;;;;;;5051941;28;20025;-67
2023/12/03 11:19:06;;;;;;;13.48;6.43;;;;;;;;;;5051876;28;20028;-66
2023/12/03 11:22:10;;;;;;;17.00;9.88;;;;;;;;;;5050453;28;20029;-66
2023/12/03 11:25:17;;;;;;;16.45;7.32;;;;;;;;;;5051688;28;20045;-68
2023/12/03 11:27:45;;;;;;;15.27;7.05;;;;;;;;;;5029612;28;20081;-69
2023/12/03 11:30:11;;;;;;;8.55;5.22;;;;;;;;;;5029408;28;20112;-67
2023/12/03 11:32:37;;;;;;;9.13;5.38;;;;;;;;;;5031405;28;20040;-67
2023/12/03 11:35:07;;;;;;;12.85;6.63;;;;;;;;;;5040547;28;20475;-67
2023/12/03 11:37:33;;;;;;;10.27;5.22;;;;;;;;;;5029663;28;20445;-67
2023/12/03 11:40:07;;;;;;;11.43;5.35;;;;;;;;;;5029449;28;20026;-67
2023/12/03 11:42:33;;;;;;;10.93;6.65;;;;;;;;;;5018367;28;20481;-67
2023/12/03 11:45:20;;;;;;;10.80;6.32;;;;;;;;;;5029570;28;20038;-67
2023/12/03 11:48:10;;;;;;;12.48;5.55;;;;;;;;;;5029446;28;20526;-67
2023/12/03 11:50:42;;;;;;;11.23;6.20;;;;;;;;;;5029417;28;20033;-67
2023/12/03 11:53:09;;;;;;;6.57;3.53;;;;;;;;;;5029180;28;20298;-67
2023/12/03 11:55:37;;;;;;;10.23;5.38;;;;;;;;;;5029267;28;20033;-68
2023/12/03 11:58:03;;;;;;;8.95;5.13;;;;;;;;;;5029245;28;20029;-66
2023/12/03 12:00:29;;;;;;;7.93;4.60;;;;;;;;;;5030754;28;20029;-66
2023/12/03 12:02:55;;;;;;;7.63;4.50;;;;;;;;;;5053658;28;20495;-66
2023/12/03 12:05:20;;;;;;;13.43;6.03;;;;;;;;;;5075015;28;20047;-66
2023/12/03 12:08:00;;;;;;;9.38;5.45;;;;;;;;;;5074768;28;20027;-66
2023/12/03 12:10:26;;;;;;;9.60;5.18;;;;;;;;;;5054558;28;20466;-66
2023/12/03 12:12:51;;;;;;;10.40;5.93;;;;;;;;;;5054766;28;20103;-66
2023/12/03 12:15:17;;;;;;;8.57;4.78;;;;;;;;;;5054966;28;20057;-66
2023/12/03 12:17:43;;;;;;;7.90;4.90;;;;;;;;;;5054667;28;20025;-67
2023/12/03 12:20:09;;;;;;;8.57;4.80;;;;;;;;;;5054709;28;20036;-66
2023/12/03 12:22:34;;;;;;;8.32;4.05;;;;;;;;;;5054710;28;20385;-67
2023/12/03 12:25:01;;;;;;;8.90;4.82;;;;;;;;;;5054870;28;20021;-67
2023/12/03 12:27:26;;;;;;;9.40;4.35;;;;;;;;;;5053277;28;20027;-67
2023/12/03 12:29:52;;;;;;;10.70;5.40;;;;;;;;;;5054020;28;20104;-67
2023/12/03 12:32:17;;;;;;;10.43;5.72;;;;;;;;;;5053303;28;20489;-67
2023/12/03 12:34:46;;;;;;;12.25;7.65;;;;;;;;;;5069428;28;20113;-67
2023/12/03 12:37:11;;;;;;;9.65;4.68;;;;;;;;;;5054636;28;20036;-67
2023/12/03 12:39:37;;;;;;;14.20;5.82;;;;;;;;;;5054219;28;20025;-67
2023/12/03 12:42:04;;;;;;;9.82;5.05;;;;;;;;;;5052450;28;20021;-67
2023/12/03 12:44:39;;;;;;;12.38;6.32;;;;;;;;;;5034512;28;20398;-67
2023/12/03 12:47:06;;;;;;;13.70;6.57;;;;;;;;;;5033096;28;20095;-67
2023/12/03 12:49:32;;;;;;;11.00;5.97;;;;;;;;;;5034546;28;20402;-67
2023/12/03 12:52:15;;;;;;;8.07;4.35;;;;;;;;;;5033861;28;20029;-68
2023/12/03 12:54:47;;;;;;;14.27;6.10;;;;;;;;;;5034468;28;20034;-68
2023/12/03 12:57:13;;;;;;;10.77;4.82;;;;;;;;;;5034167;28;20032;-68
2023/12/03 12:59:39;;;;;;;11.18;5.55;;;;;;;;;;5034254;28;20030;-68
2023/12/03 13:02:06;;;;;;;15.57;5.78;;;;;;;;;;5033910;28;20113;-67
2023/12/03 13:04:32;;;;;;;15.88;7.43;;;;;;;;;;5055309;28;20032;-67
2023/12/03 13:06:57;;;;;;;19.25;7.60;;;;;;;;;;5074053;28;20024;-67
2023/12/03 13:09:22;;;;;;;20.95;9.45;;;;;;;;;;5063408;28;20413;-67
2023/12/03 13:11:48;;;;;;;20.65;8.23;;;;;;;;;;5052901;28;20109;-67
2023/12/03 13:14:13;;;;;;;20.85;9.15;;;;;;;;;;5053827;28;20211;-67
2023/12/03 13:16:41;;;;;;;18.77;8.77;;;;;;;;;;5053667;28;20115;-67
2023/12/03 13:19:07;;;;;;;10.68;4.72;;;;;;;;;;5053884;28;20031;-67
2023/12/03 13:21:32;;;;;;;12.18;5.68;;;;;;;;;;5053509;28;20432;-67
2023/12/03 13:23:58;;;;;;;14.93;6.22;;;;;;;;;;5053441;28;20029;-67
2023/12/03 13:26:23;;;;;;;13.70;6.82;;;;;;;;;;5053649;28;20021;-67
2023/12/03 13:28:48;;;;;;;16.27;7.38;;;;;;;;;;5053620;28;20029;-67
2023/12/03 13:31:14;;;;;;;14.80;5.65;;;;;;;;;;5053486;28;20025;-67
2023/12/03 13:33:39;;;;;;;9.30;5.40;;;;;;;;;;5063741;28;20458;-66
2023/12/03 13:36:05;;;;;;;15.93;7.20;;;;;;;;;;5057679;28;20029;-66
2023/12/03 13:38:30;;;;;;;13.13;6.28;;;;;;;;;;5053392;28;20025;-67
2023/12/03 13:40:56;;;;;;;18.55;8.07;;;;;;;;;;5053099;28;20033;-67
2023/12/03 13:43:23;;;;;;;12.25;4.55;;;;;;;;;;5040696;28;20026;-67
2023/12/03 13:45:49;;;;;;;15.27;7.70;;;;;;;;;;5033084;28;20037;-67
2023/12/03 13:48:14;;;;;;;19.50;9.52;;;;;;;;;;5033370;28;20186;-67
2023/12/03 13:50:39;;;;;;;19.33;8.75;;;;;;;;;;5033362;28;20017;-67
2023/12/03 13:53:05;;;;;;;11.68;5.93;;;;;;;;;;5033082;28;20491;-67
2023/12/03 13:55:31;;;;;;;11.25;6.47;;;;;;;;;;5031789;28;20123;-67
2023/12/03 13:57:56;;;;;;;15.98;6.15;;;;;;;;;;5032954;28;20029;-67
2023/12/03 14:00:22;;;;;;;19.42;8.88;;;;;;;;;;5031798;28;20033;-66
2023/12/03 14:02:47;;;;;;;16.88;8.68;;;;;;;;;;5032728;28;20022;-66
2023/12/03 14:05:13;;;;;;;15.20;7.72;;;;;;;;;;5041176;28;20350;-67
2023/12/03 14:07:40;;;;;;;17.13;8.60;;;;;;;;;;5072780;28;20107;-68
2023/12/03 14:10:09;;;;;;;17.75;8.38;;;;;;;;;;5055984;28;20116;-67
2023/12/03 14:12:34;;;;;;;18.20;8.70;;;;;;;;;;5051538;28;20025;-67
2023/12/03 14:15:00;;;;;;;16.02;7.43;;;;;;;;;;5051622;28;20047;-67
2023/12/03 14:17:25;;;;;;;15.27;8.55;;;;;;;;;;5052801;28;20016;-67
2023/12/03 14:19:50;;;;;;;17.25;8.85;;;;;;;;;;5052386;28;20032;-67
2023/12/03 14:22:17;;;;;;;16.27;8.00;;;;;;;;;;5048005;28;20074;-67
2023/12/03 14:24:44;;;;;;;16.25;7.82;;;;;;;;;;5057586;28;20017;-67
2023/12/03 14:27:10;;;;;;;13.10;6.72;;;;;;;;;;5064253;28;20033;-67
2023/12/03 14:29:35;;;;;;;12.30;6.00;;;;;;;;;;5057004;28;20521;-65
2023/12/03 14:32:01;;;;;;;13.57;7.07;;;;;;;;;;5054682;28;20032;-66